Time;durP1;ratioP1;P1;durP2;ratioP2;P2;SDS_P1;SDS_P2;PMS_P1;PMS_P2;Temp;Humidity;BMP_temperature;BMP_pressure;BME280_temperature;BME280_humidity;BME280_pressure;Samples;Min_cycle;Max_cycle;Signal;HPM_P1;HPM_P2
2023/12/07 00:01:27;;;;;;;;;;;;;;;3.64;72.05;98162.16;4962435;28;19929;-82
2023/12/07 00:04:16;;;;;;;;;;;;;;;3.72;72.35;98168.09;4973573;28;19995;-79
2023/12/07 00:07:07;;;;;;;;;;;;;;;3.68;72.26;98167.84;4968296;28;20368;-80
2023/12/07 00:09:55;;;;;;;;;;;;;;;3.77;71.88;98166.25;4966390;28;20280;-79
2023/12/07 00:12:44;;;;;;;;;;;;;;;3.75;72.43;98164.91;4971244;28;19926;-83
2023/12/07 00:15:32;;;;;;;;;;;;;;;3.74;72.08;98166.78;4964171;28;19926;-79
2023/12/07 00:18:20;;;;;;;;;;;;;;;3.77;72.01;98163.56;4972564;28;20312;-83
2023/12/07 00:21:09;;;;;;;;;;;;;;;3.67;72.04;98167.03;4969974;28;19933;-81
2023/12/07 00:27:11;;;;;;;;;;;;;;;3.65;72.09;98169.16;4970283;28;19922;-79
2023/12/07 00:30:00;;;;;;;;;;;;;;;3.61;72.61;98181.47;4972125;28;20384;-79
2023/12/07 00:32:49;;;;;;;;;;;;;;;3.71;72.20;98178.06;4970377;28;19926;-83
2023/12/07 00:35:37;;;;;;;;;;;;;;;3.54;72.86;98177.41;4968529;28;19927;-81
2023/12/07 00:38:25;;;;;;;;;;;;;;;3.59;72.42;98180.94;4971141;28;19922;-80
2023/12/07 00:41:41;;;;;;;;;;;;;;;3.58;72.50;98184.69;4959441;28;19930;-84
2023/12/07 00:44:29;;;;;;;;;;;;;;;3.56;72.40;98186.00;4969821;28;19930;-80
2023/12/07 00:47:18;;;;;;;;;;;;;;;3.42;72.70;98186.47;4958804;28;20375;-82
2023/12/07 00:50:07;;;;;;;;;;;;;;;3.53;72.57;98192.72;4967847;28;19933;-81
2023/12/07 00:52:56;;;;;;;;;;;;;;;3.40;72.96;98195.84;4969350;28;19929;-81
2023/12/07 00:55:45;;;;;;;;;;;;;;;3.47;72.46;98199.13;4966330;28;20883;-80
2023/12/07 00:58:38;;;;;;;;;;;;;;;3.35;72.68;98196.63;4969248;28;20013;-82
2023/12/07 01:01:26;;;;;;;;;;;;;;;3.46;72.61;98199.38;4967119;28;19922;-80
2023/12/07 01:04:15;;;;;;;;;;;;;;;3.62;72.56;98211.84;4964399;28;20283;-81
2023/12/07 01:07:04;;;;;;;;;;;;;;;3.35;72.44;98201.19;4968244;28;20013;-81
2023/12/07 01:09:52;;;;;;;;;;;;;;;3.39;73.26;98211.16;4968358;28;20405;-78
2023/12/07 01:12:41;;;;;;;;;;;;;;;3.26;73.36;98211.59;4965284;28;20295;-79
2023/12/07 01:15:31;;;;;;;;;;;;;;;3.37;73.36;98210.63;4954906;28;20017;-80
2023/12/07 01:18:19;;;;;;;;;;;;;;;3.61;72.90;98216.41;4970708;28;19930;-79
2023/12/07 01:21:07;;;;;;;;;;;;;;;3.69;72.54;98212.44;4964366;28;19994;-78
2023/12/07 01:23:58;;;;;;;;;;;;;;;3.77;71.88;98217.31;4963529;28;19969;-80
2023/12/07 01:26:53;;;;;;;;;;;;;;;3.78;71.70;98224.34;4967166;28;19926;-80
2023/12/07 01:29:42;;;;;;;;;;;;;;;3.74;71.88;98225.09;4964732;28;19922;-77
2023/12/07 01:32:32;;;;;;;;;;;;;;;3.63;71.91;98238.47;4966431;28;19926;-84
2023/12/07 01:35:20;;;;;;;;;;;;;;;3.66;71.76;98240.63;4965438;28;19926;-82
2023/12/07 01:38:09;;;;;;;;;;;;;;;3.79;71.90;98244.75;4964876;28;20028;-81
2023/12/07 01:40:57;;;;;;;;;;;;;;;3.70;71.72;98248.19;4966540;28;19922;-80
2023/12/07 01:43:46;;;;;;;;;;;;;;;3.52;72.60;98244.84;4966741;28;19929;-79
2023/12/07 01:46:59;;;;;;;;;;;;;;;3.39;72.86;98251.44;4969256;28;19977;-83
2023/12/07 01:49:49;;;;;;;;;;;;;;;3.58;72.22;98256.44;4966142;28;19931;-80
2023/12/07 01:52:37;;;;;;;;;;;;;;;3.62;72.30;98261.03;4970167;28;19926;-79
2023/12/07 01:55:29;;;;;;;;;;;;;;;3.67;71.45;98253.03;4968108;28;19922;-80
2023/12/07 02:04:42;;;;;;;;;;;;;;;3.52;72.12;98260.16;4958689;28;20048;-80
2023/12/07 02:07:32;;;;;;;;;;;;;;;3.65;72.18;98260.50;4963076;28;19973;-81
2023/12/07 02:10:22;;;;;;;;;;;;;;;3.45;72.35;98260.34;4971507;28;19922;-80
2023/12/07 02:13:37;;;;;;;;;;;;;;;3.46;72.58;98261.16;4964756;28;20332;-79
2023/12/07 02:16:50;;;;;;;;;;;;;;;3.46;72.66;98255.78;4969617;28;20002;-82
2023/12/07 02:20:29;;;;;;;;;;;;;;;3.39;72.74;98272.91;4971045;28;19922;-81
2023/12/07 02:26:38;;;;;;;;;;;;;;;3.37;72.57;98276.94;4969190;28;19922;-80
2023/12/07 02:29:29;;;;;;;;;;;;;;;3.32;72.76;98277.72;4971944;28;19922;-79
2023/12/07 02:32:18;;;;;;;;;;;;;;;3.33;73.13;98273.16;4972911;28;19922;-80
2023/12/07 02:35:08;;;;;;;;;;;;;;;3.31;73.17;98273.41;4963079;28;19949;-81
2023/12/07 02:37:56;;;;;;;;;;;;;;;3.40;72.75;98279.09;4970602;28;20029;-83
2023/12/07 02:40:45;;;;;;;;;;;;;;;3.44;72.81;98274.84;4971491;28;19928;-77
2023/12/07 02:43:34;;;;;;;;;;;;;;;3.40;72.64;98271.03;4970698;28;20356;-80
2023/12/07 02:46:23;;;;;;;;;;;;;;;3.45;73.07;98260.34;4969791;28;19961;-81
2023/12/07 02:49:11;;;;;;;;;;;;;;;3.45;72.96;98263.03;4956304;28;19926;-79
2023/12/07 02:52:24;;;;;;;;;;;;;;;3.48;72.84;98259.03;4969593;28;19926;-80
2023/12/07 02:55:13;;;;;;;;;;;;;;;3.51;72.56;98266.56;4973537;28;20272;-82
2023/12/07 02:58:02;;;;;;;;;;;;;;;3.40;73.01;98274.53;4973210;28;19930;-80
2023/12/07 03:00:53;;;;;;;;;;;;;;;3.41;72.71;98286.94;4967384;28;20032;-82
2023/12/07 03:03:42;;;;;;;;;;;;;;;3.38;73.16;98275.88;4958251;28;20388;-77
2023/12/07 03:06:30;;;;;;;;;;;;;;;3.44;72.97;98280.22;4964858;28;19970;-80
2023/12/07 03:09:18;;;;;;;;;;;;;;;3.36;72.94;98286.88;4969121;28;19922;-80
2023/12/07 03:12:07;;;;;;;;;;;;;;;3.43;72.97;98283.97;4971798;28;19922;-79
2023/12/07 03:14:55;;;;;;;;;;;;;;;3.47;72.93;98285.09;4970075;28;19926;-80
2023/12/07 03:17:44;;;;;;;;;;;;;;;3.41;73.12;98286.13;4967742;28;19929;-79
2023/12/07 03:20:33;;;;;;;;;;;;;;;3.40;73.07;98285.28;4966318;28;19929;-79
2023/12/07 03:23:45;;;;;;;;;;;;;;;3.31;73.46;98288.72;4967252;28;20312;-78
2023/12/07 03:26:34;;;;;;;;;;;;;;;3.23;73.37;98291.84;4969033;28;19929;-82
2023/12/07 03:32:37;;;;;;;;;;;;;;;3.27;73.80;98295.66;4972413;28;20573;-82
2023/12/07 03:35:27;;;;;;;;;;;;;;;3.28;73.61;98291.88;4969404;28;19934;-77
2023/12/07 03:41:55;;;;;;;;;;;;;;;3.43;72.69;98302.78;4967475;28;19925;-81
2023/12/07 03:44:43;;;;;;;;;;;;;;;3.49;73.33;98299.06;4969583;28;19973;-80
2023/12/07 03:47:32;;;;;;;;;;;;;;;3.61;72.71;98312.31;4969251;28;19938;-78
2023/12/07 03:50:21;;;;;;;;;;;;;;;3.56;72.28;98305.03;4964258;28;20446;-83
2023/12/07 03:53:13;;;;;;;;;;;;;;;3.56;72.31;98309.59;4970957;28;19948;-81
2023/12/07 03:56:02;;;;;;;;;;;;;;;3.46;72.09;98309.50;4968435;28;20407;-85
2023/12/07 03:58:50;;;;;;;;;;;;;;;3.60;71.90;98303.44;4968722;28;20017;-81
2023/12/07 04:01:38;;;;;;;;;;;;;;;3.47;72.54;98298.53;4970458;28;20017;-80
2023/12/07 04:04:27;;;;;;;;;;;;;;;3.53;72.50;98310.94;4969703;28;19926;-81
2023/12/07 04:07:16;;;;;;;;;;;;;;;3.66;71.61;98305.09;4967368;28;20084;-82
2023/12/07 04:10:06;;;;;;;;;;;;;;;3.61;71.79;98313.13;4965713;28;19969;-80
2023/12/07 04:12:55;;;;;;;;;;;;;;;3.71;71.82;98316.97;4967497;28;19945;-82
2023/12/07 04:15:43;;;;;;;;;;;;;;;3.57;72.28;98322.78;4967794;28;20049;-80
2023/12/07 04:21:44;;;;;;;;;;;;;;;3.48;72.40;98318.13;4970049;28;19922;-82
2023/12/07 04:24:33;;;;;;;;;;;;;;;3.51;72.47;98322.97;4969497;28;19923;-81
2023/12/07 04:27:27;;;;;;;;;;;;;;;3.54;72.51;98320.59;4968130;28;19937;-80
2023/12/07 04:30:15;;;;;;;;;;;;;;;3.43;72.93;98326.94;4967447;28;19957;-81
2023/12/07 04:33:04;;;;;;;;;;;;;;;3.40;73.11;98322.88;4969794;28;19923;-82
2023/12/07 04:35:52;;;;;;;;;;;;;;;3.36;73.23;98326.34;4971019;28;19948;-81
2023/12/07 04:41:52;;;;;;;;;;;;;;;3.38;73.36;98329.59;4965912;28;20280;-83
2023/12/07 04:44:42;;;;;;;;;;;;;;;3.28;73.35;98330.28;4970121;28;20663;-80
2023/12/07 04:47:31;;;;;;;;;;;;;;;3.15;74.07;98331.53;4968008;28;19931;-81
2023/12/07 04:50:19;;;;;;;;;;;;;;;3.27;73.88;98333.25;4964965;28;19934;-79
2023/12/07 04:53:07;;;;;;;;;;;;;;;3.11;74.17;98335.75;4970105;28;20387;-80
2023/12/07 04:55:55;;;;;;;;;;;;;;;3.19;74.25;98339.06;4968884;28;19922;-80
2023/12/07 04:58:47;;;;;;;;;;;;;;;3.25;73.88;98335.34;4959289;28;19926;-82
2023/12/07 05:01:38;;;;;;;;;;;;;;;3.38;73.24;98340.34;4967776;28;19922;-82
2023/12/07 05:04:27;;;;;;;;;;;;;;;3.31;73.42;98340.53;4969395;28;20054;-80
2023/12/07 05:07:15;;;;;;;;;;;;;;;3.41;73.25;98342.53;4968556;28;19929;-82
2023/12/07 05:10:04;;;;;;;;;;;;;;;3.49;73.10;98341.25;4967575;28;19933;-80
2023/12/07 05:12:56;;;;;;;;;;;;;;;3.50;72.85;98330.22;4967615;28;19930;-81
2023/12/07 05:19:47;;;;;;;;;;;;;;;3.73;71.62;98341.69;4965864;28;20312;-81
2023/12/07 05:22:36;;;;;;;;;;;;;;;3.86;71.24;98343.97;4968367;28;20288;-80
2023/12/07 05:28:38;;;;;;;;;;;;;;;3.98;70.25;98338.41;4963248;28;19929;-81
2023/12/07 05:31:26;;;;;;;;;;;;;;;3.97;70.46;98344.84;4966439;28;19934;-79
2023/12/07 05:34:15;;;;;;;;;;;;;;;4.12;69.78;98344.97;4963282;28;19934;-83
2023/12/07 05:37:05;;;;;;;;;;;;;;;4.03;70.14;98351.88;4968377;28;19922;-79
2023/12/07 05:39:53;;;;;;;;;;;;;;;4.09;69.39;98351.66;4968920;28;20387;-80
2023/12/07 05:42:42;;;;;;;;;;;;;;;3.45;71.67;98356.22;4973646;28;20016;-82
2023/12/07 05:45:30;;;;;;;;;;;;;;;3.38;71.94;98353.75;4972716;28;20432;-80
2023/12/07 05:48:18;;;;;;;;;;;;;;;3.58;71.29;98361.22;4971181;28;19973;-85
2023/12/07 05:51:07;;;;;;;;;;;;;;;3.70;70.85;98358.34;4964575;28;19942;-82
2023/12/07 05:53:57;;;;;;;;;;;;;;;3.85;70.13;98366.53;4971139;28;19962;-80
2023/12/07 05:56:46;;;;;;;;;;;;;;;3.80;69.59;98369.19;4971205;28;19922;-81
2023/12/07 05:59:37;;;;;;;;;;;;;;;3.83;70.07;98369.47;4969529;28;19934;-81
2023/12/07 06:02:31;;;;;;;;;;;;;;;3.75;69.41;98369.16;4971501;28;20058;-81
2023/12/07 06:05:20;;;;;;;;;;;;;;;3.64;70.25;98370.94;4972481;28;19929;-81
2023/12/07 06:08:12;;;;;;;;;;;;;;;3.60;70.48;98365.25;4970500;28;19926;-81
2023/12/07 06:11:03;;;;;;;;;;;;;;;3.55;70.46;98367.06;4966650;28;19928;-79
2023/12/07 06:13:52;;;;;;;;;;;;;;;3.52;70.78;98373.78;4972803;28;19921;-77
2023/12/07 06:17:05;;;;;;;;;;;;;;;3.54;70.80;98377.00;4971730;28;20013;-80
2023/12/07 06:20:43;;;;;;;;;;;;;;;3.49;70.16;98373.47;4968808;28;19926;-79
2023/12/07 06:23:41;;;;;;;;;;;;;;;3.56;70.59;98374.88;4970445;28;19922;-79
2023/12/07 06:26:31;;;;;;;;;;;;;;;3.50;70.59;98380.47;4972090;28;19929;-79
2023/12/07 06:32:32;;;;;;;;;;;;;;;3.60;70.29;98383.25;4970265;28;20284;-79
2023/12/07 06:35:47;;;;;;;;;;;;;;;3.60;69.93;98385.94;4964468;28;20331;-81
2023/12/07 06:39:00;;;;;;;;;;;;;;;3.70;70.26;98391.41;4965171;28;20411;-79
2023/12/07 06:41:51;;;;;;;;;;;;;;;3.70;69.80;98393.28;4970919;28;19950;-81
2023/12/07 06:44:39;;;;;;;;;;;;;;;3.72;69.53;98389.25;4958483;28;20257;-78
2023/12/07 06:47:31;;;;;;;;;;;;;;;3.52;70.00;98384.53;4968742;28;19922;-80
2023/12/07 06:50:21;;;;;;;;;;;;;;;3.63;70.06;98397.00;4970166;28;19933;-81
2023/12/07 06:53:11;;;;;;;;;;;;;;;3.51;70.52;98392.81;4968122;28;19993;-80
2023/12/07 06:55:59;;;;;;;;;;;;;;;3.48;70.08;98394.16;4955583;28;20152;-79
2023/12/07 06:58:49;;;;;;;;;;;;;;;3.49;70.44;98395.78;4973025;28;20280;-80
2023/12/07 07:01:37;;;;;;;;;;;;;;;3.45;70.56;98401.91;4969168;28;20372;-79
2023/12/07 07:04:26;;;;;;;;;;;;;;;3.51;70.73;98409.75;4970571;28;19930;-79
2023/12/07 07:07:14;;;;;;;;;;;;;;;3.55;70.47;98405.50;4967761;28;19925;-78
2023/12/07 07:10:02;;;;;;;;;;;;;;;3.61;70.57;98407.16;4973334;28;20604;-79
2023/12/07 07:12:51;;;;;;;;;;;;;;;3.51;70.15;98408.94;4970964;28;20009;-81
2023/12/07 07:15:44;;;;;;;;;;;;;;;3.36;71.65;98410.41;4957752;28;19930;-79
2023/12/07 07:18:32;;;;;;;;;;;;;;;3.54;71.18;98417.31;4968923;28;19922;-76
2023/12/07 07:21:21;;;;;;;;;;;;;;;3.68;70.95;98413.16;4970414;28;19922;-81
2023/12/07 07:24:09;;;;;;;;;;;;;;;3.72;71.23;98412.63;4970373;28;20277;-79
2023/12/07 07:26:58;;;;;;;;;;;;;;;3.80;71.13;98414.88;4950192;28;20280;-77
2023/12/07 07:33:01;;;;;;;;;;;;;;;3.73;71.22;98425.00;4972165;28;20233;-79
2023/12/07 07:35:49;;;;;;;;;;;;;;;3.77;71.16;98420.75;4955513;28;20101;-82
2023/12/07 07:45:28;;;;;;;;;;;;;;;3.19;72.36;98422.28;4965526;28;20288;-78
2023/12/07 07:48:17;;;;;;;;;;;;;;;3.13;73.24;98424.09;4970977;28;19926;-81
2023/12/07 07:51:06;;;;;;;;;;;;;;;3.28;72.62;98432.34;4956612;28;20053;-80
2023/12/07 07:54:18;;;;;;;;;;;;;;;3.45;72.29;98429.56;4964985;28;20016;-79
2023/12/07 07:57:56;;;;;;;;;;;;;;;3.39;72.70;98433.25;4968244;28;19922;-81
2023/12/07 08:00:46;;;;;;;;;;;;;;;3.19;72.80;98422.28;4964786;28;19945;-81
2023/12/07 08:03:36;;;;;;;;;;;;;;;2.83;74.36;98425.34;4970883;28;19929;-80
2023/12/07 08:06:24;;;;;;;;;;;;;;;3.31;73.27;98417.63;4966568;28;20141;-78
2023/12/07 08:09:38;;;;;;;;;;;;;;;3.30;73.04;98432.06;4950961;28;20163;-78
2023/12/07 08:12:26;;;;;;;;;;;;;;;3.45;72.22;98424.19;4955645;28;20010;-81
2023/12/07 08:15:16;;;;;;;;;;;;;;;3.61;71.82;98420.59;4953421;28;19930;-78
2023/12/07 08:18:05;;;;;;;;;;;;;;;3.40;71.93;98424.94;4962723;28;20132;-78
2023/12/07 08:20:55;;;;;;;;;;;;;;;3.19;72.87;98422.28;4968021;28;20223;-81
2023/12/07 08:23:45;;;;;;;;;;;;;;;3.45;72.37;98426.06;4969570;28;20307;-78
2023/12/07 08:26:33;;;;;;;;;;;;;;;3.53;72.37;98434.50;4966120;28;20093;-80
2023/12/07 08:29:47;;;;;;;;;;;;;;;3.69;71.95;98427.41;4968349;28;19929;-78
2023/12/07 08:33:00;;;;;;;;;;;;;;;3.85;71.21;98439.13;4967125;28;19968;-79
2023/12/07 08:35:54;;;;;;;;;;;;;;;3.82;71.24;98432.34;4966013;28;19929;-80
2023/12/07 08:39:09;;;;;;;;;;;;;;;3.55;72.23;98443.09;4953696;28;20078;-79
2023/12/07 08:41:59;;;;;;;;;;;;;;;3.66;71.71;98447.53;4962654;28;20304;-83
2023/12/07 08:44:47;;;;;;;;;;;;;;;3.70;71.72;98436.28;4952764;28;19922;-79
2023/12/07 08:47:36;;;;;;;;;;;;;;;3.71;71.35;98440.59;4968338;28;20308;-80
2023/12/07 08:50:24;;;;;;;;;;;;;;;3.82;71.50;98442.31;4962725;28;20271;-80
2023/12/07 08:53:13;;;;;;;;;;;;;;;3.94;71.33;98440.25;4967890;28;20323;-79
2023/12/07 08:56:02;;;;;;;;;;;;;;;3.94;71.31;98438.41;4967140;28;20472;-80
2023/12/07 08:58:53;;;;;;;;;;;;;;;4.01;71.45;98448.94;4965713;28;19926;-80
2023/12/07 09:01:43;;;;;;;;;;;;;;;3.94;71.16;98448.31;4966387;28;19922;-81
2023/12/07 09:04:31;;;;;;;;;;;;;;;4.00;71.21;98450.00;4961254;28;19922;-82
2023/12/07 09:07:20;;;;;;;;;;;;;;;4.25;70.38;98453.97;4952125;28;19929;-79
2023/12/07 09:10:09;;;;;;;;;;;;;;;4.24;70.38;98445.09;4962450;28;20391;-81
2023/12/07 09:13:02;;;;;;;;;;;;;;;4.36;69.56;98442.22;4972084;28;19926;-78
2023/12/07 09:15:53;;;;;;;;;;;;;;;4.45;69.77;98446.06;4967875;28;20364;-83
2023/12/07 09:18:42;;;;;;;;;;;;;;;4.48;69.18;98450.94;4953950;28;19968;-82
2023/12/07 09:21:30;;;;;;;;;;;;;;;4.49;69.25;98449.06;4973856;28;19934;-80
2023/12/07 09:24:19;;;;;;;;;;;;;;;4.49;69.85;98447.16;4972038;28;19926;-79
2023/12/07 09:27:08;;;;;;;;;;;;;;;4.59;69.44;98438.38;4970205;28;19928;-81
2023/12/07 09:33:11;;;;;;;;;;;;;;;4.53;69.00;98448.28;4965339;28;19934;-79
2023/12/07 09:36:00;;;;;;;;;;;;;;;4.39;69.77;98449.78;4970929;28;19950;-78
2023/12/07 09:42:01;;;;;;;;;;;;;;;3.87;70.67;98443.16;4954451;28;19930;-79
2023/12/07 09:44:49;;;;;;;;;;;;;;;3.91;70.60;98443.47;4965510;28;19938;-88
2023/12/07 09:47:38;;;;;;;;;;;;;;;4.27;70.45;98444.59;4968569;28;19926;-81
2023/12/07 09:50:28;;;;;;;;;;;;;;;4.25;69.98;98440.53;4963386;28;19934;-79
2023/12/07 09:53:16;;;;;;;;;;;;;;;4.28;69.60;98435.44;4970536;28;19941;-77
2023/12/07 09:56:05;;;;;;;;;;;;;;;4.51;69.42;98444.22;4969916;28;20252;-82
2023/12/07 09:58:56;;;;;;;;;;;;;;;4.49;69.60;98435.59;4973217;28;19969;-83
2023/12/07 10:02:09;;;;;;;;;;;;;;;4.46;68.94;98431.53;4974163;28;19929;-79
2023/12/07 10:05:56;;;;;;;;;;;;;;;4.75;68.31;98421.22;4964973;28;19965;-83
2023/12/07 10:08:48;;;;;;;;;;;;;;;4.57;69.23;98417.06;4961458;28;19937;-80
2023/12/07 10:11:38;;;;;;;;;;;;;;;4.73;68.65;98416.09;4971934;28;19941;-81
2023/12/07 10:14:26;;;;;;;;;;;;;;;4.89;68.27;98408.91;4970654;28;19953;-80
2023/12/07 10:17:39;;;;;;;;;;;;;;;4.95;68.44;98401.66;4970129;28;19922;-78
2023/12/07 10:20:28;;;;;;;;;;;;;;;5.01;68.12;98411.41;4968786;28;19965;-80
2023/12/07 10:26:36;;;;;;;;;;;;;;;5.08;68.25;98403.88;4967656;28;19969;-80
2023/12/07 10:29:50;;;;;;;;;;;;;;;4.78;66.61;98411.81;4954901;28;19926;-80
2023/12/07 10:33:03;;;;;;;;;;;;;;;4.98;66.82;98407.34;4971763;28;20376;-81
2023/12/07 10:35:53;;;;;;;;;;;;;;;5.08;66.70;98406.56;4964389;28;20387;-82
2023/12/07 10:39:07;;;;;;;;;;;;;;;5.15;67.20;98404.44;4955853;28;20288;-78
2023/12/07 10:42:04;;;;;;;;;;;;;;;5.10;66.43;98399.03;4971188;28;20264;-79
2023/12/07 10:44:54;;;;;;;;;;;;;;;5.12;65.82;98396.91;4973778;28;19926;-78
2023/12/07 10:47:43;;;;;;;;;;;;;;;5.17;67.12;98393.41;4971042;28;19978;-80
2023/12/07 10:50:35;;;;;;;;;;;;;;;5.10;65.92;98390.94;4963182;28;20212;-79
2023/12/07 10:53:49;;;;;;;;;;;;;;;4.94;66.53;98395.47;4970233;28;20387;-79
2023/12/07 10:56:41;;;;;;;;;;;;;;;5.10;66.65;98388.25;4969305;28;19925;-77
2023/12/07 10:59:31;;;;;;;;;;;;;;;5.09;66.39;98394.72;4959099;28;19922;-83
2023/12/07 11:02:47;;;;;;;;;;;;;;;5.02;66.63;98388.78;4967971;28;19923;-79
2023/12/07 11:05:35;;;;;;;;;;;;;;;5.13;66.67;98393.13;4964365;28;20391;-79
2023/12/07 11:08:28;;;;;;;;;;;;;;;5.17;65.99;98386.16;4956699;28;20300;-80
2023/12/07 11:11:20;;;;;;;;;;;;;;;5.19;65.41;98380.50;4970950;28;19982;-80
2023/12/07 11:14:11;;;;;;;;;;;;;;;5.33;66.67;98376.22;4955631;28;19930;-82
2023/12/07 11:17:24;;;;;;;;;;;;;;;5.39;66.03;98374.34;4964765;28;20500;-80
2023/12/07 11:20:14;;;;;;;;;;;;;;;5.51;65.13;98366.81;4959251;28;19926;-81
2023/12/07 11:23:04;;;;;;;;;;;;;;;5.44;65.96;98360.91;4958758;28;19944;-79
2023/12/07 11:25:53;;;;;;;;;;;;;;;5.22;65.90;98353.84;4959951;28;19941;-80
2023/12/07 11:28:41;;;;;;;;;;;;;;;5.16;65.96;98352.19;4967355;28;19922;-80
2023/12/07 11:31:30;;;;;;;;;;;;;;;5.31;65.74;98343.34;4963718;28;20319;-79
2023/12/07 11:34:31;;;;;;;;;;;;;;;4.75;66.03;98342.38;4968274;28;19965;-81
2023/12/07 11:37:22;;;;;;;;;;;;;;;4.04;68.07;98327.44;4968146;28;19922;-79
2023/12/07 11:43:31;;;;;;;;;;;;;;;4.13;67.42;98335.84;4948433;28;20292;-81
2023/12/07 11:46:24;;;;;;;;;;;;;;;4.10;67.00;98326.41;4969541;28;21518;-80
2023/12/07 11:49:13;;;;;;;;;;;;;;;4.29;67.35;98317.91;4964587;28;19922;-80
2023/12/07 11:52:39;;;;;;;;;;;;;;;4.53;67.10;98321.81;4970000;28;20413;-80
2023/12/07 11:55:28;;;;;;;;;;;;;;;4.71;66.74;98315.97;4963424;28;20024;-78
2023/12/07 11:58:16;;;;;;;;;;;;;;;4.43;65.50;98314.50;4961715;28;20066;-77
2023/12/07 12:01:05;;;;;;;;;;;;;;;4.54;64.93;98309.97;4968135;28;19926;-78
2023/12/07 12:04:19;;;;;;;;;;;;;;;4.69;64.10;98314.63;4963493;28;19945;-78
2023/12/07 12:07:08;;;;;;;;;;;;;;;4.69;63.95;98317.31;4967632;28;20035;-78
2023/12/07 12:09:57;;;;;;;;;;;;;;;4.94;64.50;98316.56;4959095;28;19922;-78
2023/12/07 12:12:48;;;;;;;;;;;;;;;4.91;62.91;98315.25;4971403;28;19930;-78
2023/12/07 12:16:01;;;;;;;;;;;;;;;5.02;62.43;98310.69;4964979;28;19934;-81
2023/12/07 12:18:53;;;;;;;;;;;;;;;5.14;63.82;98302.38;4967723;28;19929;-78
2023/12/07 12:21:44;;;;;;;;;;;;;;;5.22;63.82;98305.34;4961929;28;19923;-78
2023/12/07 12:24:32;;;;;;;;;;;;;;;5.17;63.01;98299.97;4969134;28;19922;-80
2023/12/07 12:27:22;;;;;;;;;;;;;;;5.31;63.21;98307.50;4956714;28;20368;-81
2023/12/07 12:30:11;;;;;;;;;;;;;;;5.49;62.15;98301.63;4960722;28;19922;-81
2023/12/07 12:33:00;;;;;;;;;;;;;;;5.53;61.75;98305.38;4960737;28;19929;-80
2023/12/07 12:36:00;;;;;;;;;;;;;;;5.40;62.15;98295.94;4965263;28;19929;-81
2023/12/07 12:42:11;;;;;;;;;;;;;;;5.51;60.25;98289.47;4971618;28;19929;-80
2023/12/07 12:45:00;;;;;;;;;;;;;;;5.60;59.00;98284.38;4968203;28;19922;-80
2023/12/07 12:47:50;;;;;;;;;;;;;;;5.60;59.18;98292.47;4967895;28;20415;-79
2023/12/07 12:50:38;;;;;;;;;;;;;;;5.63;57.66;98285.72;4952458;28;19926;-77
2023/12/07 12:53:28;;;;;;;;;;;;;;;5.69;57.74;98287.31;4966790;28;19922;-81
2023/12/07 12:56:17;;;;;;;;;;;;;;;5.81;58.82;98284.38;4971762;28;19930;-78
2023/12/07 12:59:05;;;;;;;;;;;;;;;5.67;59.45;98284.91;4950381;28;20016;-79
2023/12/07 13:01:59;;;;;;;;;;;;;;;5.76;59.86;98277.91;4966628;28;19923;-80
2023/12/07 13:05:12;;;;;;;;;;;;;;;5.60;59.85;98284.38;4966819;28;20025;-81
2023/12/07 13:08:00;;;;;;;;;;;;;;;5.64;59.75;98280.03;4961707;28;19930;-77
2023/12/07 13:10:59;;;;;;;;;;;;;;;5.52;59.64;98279.50;4969585;28;19925;-80
2023/12/07 13:13:48;;;;;;;;;;;;;;;5.60;60.27;98275.47;4966344;28;20025;-81
2023/12/07 13:20:14;;;;;;;;;;;;;;;5.74;59.75;98252.28;4963264;28;20254;-79
2023/12/07 13:23:03;;;;;;;;;;;;;;;5.39;59.06;98242.34;4970395;28;19923;-77
2023/12/07 13:25:51;;;;;;;;;;;;;;;5.57;59.91;98239.09;4942782;28;19922;-79
2023/12/07 13:28:42;;;;;;;;;;;;;;;5.53;60.60;98235.31;4963100;28;20376;-80
2023/12/07 13:31:31;;;;;;;;;;;;;;;5.70;59.47;98233.16;4966736;28;19937;-80
2023/12/07 13:34:44;;;;;;;;;;;;;;;5.79;59.98;98226.13;4966070;28;20511;-81
2023/12/07 13:37:33;;;;;;;;;;;;;;;5.79;60.44;98225.31;4952761;28;20495;-77
2023/12/07 13:40:26;;;;;;;;;;;;;;;5.70;59.14;98218.84;4968339;28;20068;-78
2023/12/07 13:43:15;;;;;;;;;;;;;;;5.70;59.85;98225.06;4964561;28;19929;-79
2023/12/07 13:46:07;;;;;;;;;;;;;;;5.59;59.97;98222.63;4962386;28;19926;-79
2023/12/07 13:48:56;;;;;;;;;;;;;;;5.68;59.92;98216.44;4962156;28;19922;-77
2023/12/07 13:55:01;;;;;;;;;;;;;;;5.53;59.65;98219.13;4964369;28;19994;-82
2023/12/07 13:57:52;;;;;;;;;;;;;;;5.32;59.72;98221.03;4961000;28;19980;-78
2023/12/07 14:00:45;;;;;;;;;;;;;;;5.57;59.84;98216.72;4970675;28;19922;-80
2023/12/07 14:03:33;;;;;;;;;;;;;;;5.60;59.75;98208.09;4964461;28;19941;-80
2023/12/07 14:06:24;;;;;;;;;;;;;;;5.61;60.29;98213.22;4974125;28;20383;-81
2023/12/07 14:09:16;;;;;;;;;;;;;;;5.60;59.27;98213.50;4968492;28;20472;-79
2023/12/07 14:12:06;;;;;;;;;;;;;;;5.23;60.92;98215.38;4970462;28;20020;-79
2023/12/07 14:14:55;;;;;;;;;;;;;;;5.02;59.66;98216.44;4964061;28;19929;-78
2023/12/07 14:17:44;;;;;;;;;;;;;;;5.30;60.69;98203.53;4954735;28;20265;-79
2023/12/07 14:20:41;;;;;;;;;;;;;;;5.39;59.92;98207.31;4966524;28;20013;-78
2023/12/07 14:23:42;;;;;;;;;;;;;;;5.46;60.48;98215.91;4969830;28;19926;-81
2023/12/07 14:26:38;;;;;;;;;;;;;;;5.31;60.65;98218.59;4971836;28;19922;-82
2023/12/07 14:29:33;;;;;;;;;;;;;;;5.30;60.13;98198.13;4972702;28;19930;-80
2023/12/07 14:32:21;;;;;;;;;;;;;;;5.26;61.11;98198.66;4959999;28;20360;-80
2023/12/07 14:35:10;;;;;;;;;;;;;;;5.28;60.89;98198.41;4971955;28;19926;-79
2023/12/07 14:37:58;;;;;;;;;;;;;;;5.28;61.66;98205.69;4959695;28;19926;-79
2023/12/07 14:40:47;;;;;;;;;;;;;;;5.20;61.36;98207.81;4970646;28;19922;-80
2023/12/07 14:43:35;;;;;;;;;;;;;;;5.21;61.89;98214.81;4971051;28;19981;-81
2023/12/07 14:49:42;;;;;;;;;;;;;;;4.94;62.00;98216.97;4960584;28;19930;-78
2023/12/07 14:52:55;;;;;;;;;;;;;;;4.34;63.27;98221.09;4969413;28;20268;-81
2023/12/07 14:55:43;;;;;;;;;;;;;;;4.71;62.82;98224.47;4969074;28;19922;-82
2023/12/07 14:58:32;;;;;;;;;;;;;;;4.70;62.81;98214.78;4957926;28;19922;-80
2023/12/07 15:01:45;;;;;;;;;;;;;;;4.76;63.18;98209.41;4968957;28;19933;-79
2023/12/07 15:05:24;;;;;;;;;;;;;;;4.72;63.23;98222.56;4965400;28;20372;-83
2023/12/07 15:08:13;;;;;;;;;;;;;;;4.73;63.08;98219.59;4964460;28;20744;-78
2023/12/07 15:11:02;;;;;;;;;;;;;;;4.74;62.81;98220.44;4952381;28;19929;-81
2023/12/07 15:13:52;;;;;;;;;;;;;;;4.63;63.83;98232.22;4965045;28;20273;-80
2023/12/07 15:17:05;;;;;;;;;;;;;;;4.70;63.19;98233.59;4966028;28;19985;-80
2023/12/07 15:20:44;;;;;;;;;;;;;;;4.75;63.15;98230.13;4954557;28;19934;-82
2023/12/07 15:27:09;;;;;;;;;;;;;;;4.76;63.08;98233.63;4968619;28;19942;-78
2023/12/07 15:30:23;;;;;;;;;;;;;;;4.72;63.22;98228.75;4968412;28;20299;-79
2023/12/07 15:33:11;;;;;;;;;;;;;;;4.62;62.91;98236.81;4956327;28;19929;-82
2023/12/07 15:36:02;;;;;;;;;;;;;;;4.52;62.81;98227.88;4968278;28;19933;-79
2023/12/07 15:39:16;;;;;;;;;;;;;;;4.54;63.24;98229.25;4969361;28;19941;-79
2023/12/07 15:42:05;;;;;;;;;;;;;;;4.58;62.91;98235.72;4968412;28;19929;-82
2023/12/07 15:44:53;;;;;;;;;;;;;;;4.65;62.35;98235.47;4950075;28;19934;-78
2023/12/07 15:47:42;;;;;;;;;;;;;;;4.55;62.30;98230.88;4969281;28;19922;-79
2023/12/07 15:50:33;;;;;;;;;;;;;;;4.61;62.67;98232.50;4965810;28;19966;-79
2023/12/07 15:53:23;;;;;;;;;;;;;;;4.54;62.63;98226.56;4972003;28;19933;-79
2023/12/07 15:56:11;;;;;;;;;;;;;;;4.34;63.41;98216.53;4946461;28;19930;-78
2023/12/07 15:59:27;;;;;;;;;;;;;;;4.32;63.52;98209.81;4947767;28;19930;-80
2023/12/07 16:02:39;;;;;;;;;;;;;;;4.32;64.01;98212.50;4952107;28;19922;-81
2023/12/07 16:05:28;;;;;;;;;;;;;;;4.10;64.40;98208.09;4964816;28;19957;-79
2023/12/07 16:08:16;;;;;;;;;;;;;;;4.16;63.98;98214.31;4969400;28;19923;-78
2023/12/07 16:11:05;;;;;;;;;;;;;;;4.10;64.31;98212.66;4968214;28;20035;-78
2023/12/07 16:13:54;;;;;;;;;;;;;;;4.24;64.38;98213.00;4966879;28;20009;-80
2023/12/07 16:17:07;;;;;;;;;;;;;;;4.09;64.17;98203.78;4957305;28;19985;-78
2023/12/07 16:20:21;;;;;;;;;;;;;;;3.96;64.99;98208.84;4963931;28;19923;-81
2023/12/07 16:26:48;;;;;;;;;;;;;;;3.51;66.07;98205.59;4965494;28;20009;-81
2023/12/07 16:29:37;;;;;;;;;;;;;;;3.40;66.83;98195.84;4962404;28;20174;-77
2023/12/07 16:32:26;;;;;;;;;;;;;;;3.47;67.16;98192.97;4970654;28;20443;-77
2023/12/07 16:35:14;;;;;;;;;;;;;;;3.66;66.26;98192.25;4968328;28;19937;-79